sensor_id;sensor_type;location;lat;lon;timestamp;P1;durP1;ratioP1;P2;durP2;ratioP2
11121;SDS011;5615;49.304;10.576;2022-11-14T00:02:04;50.37;;;29.60;;
11121;SDS011;5615;49.304;10.576;2022-11-14T00:04:31;47.57;;;28.50;;
11121;SDS011;5615;49.304;10.576;2022-11-14T00:06:59;44.90;;;27.90;;
11121;SDS011;5615;49.304;10.576;2022-11-14T00:09:26;45.10;;;27.97;;
11121;SDS011;5615;49.304;10.576;2022-11-14T00:11:53;45.43;;;28.37;;
11121;SDS011;5615;49.304;10.576;2022-11-14T00:14:20;45.93;;;27.77;;
11121;SDS011;5615;49.304;10.576;2022-11-14T00:16:47;44.07;;;27.13;;
11121;SDS011;5615;49.304;10.576;2022-11-14T00:19:14;43.70;;;26.60;;
11121;SDS011;5615;49.304;10.576;2022-11-14T00:21:40;46.50;;;28.40;;
11121;SDS011;5615;49.304;10.576;2022-11-14T00:24:09;45.30;;;26.70;;
11121;SDS011;5615;49.304;10.576;2022-11-14T00:26:35;42.67;;;27.43;;
11121;SDS011;5615;49.304;10.576;2022-11-14T00:29:02;42.17;;;27.13;;
11121;SDS011;5615;49.304;10.576;2022-11-14T00:31:29;44.73;;;27.37;;
11121;SDS011;5615;49.304;10.576;2022-11-14T00:33:56;41.03;;;25.80;;
11121;SDS011;5615;49.304;10.576;2022-11-14T00:36:22;46.77;;;27.83;;
11121;SDS011;5615;49.304;10.576;2022-11-14T00:38:51;42.60;;;26.63;;
11121;SDS011;5615;49.304;10.576;2022-11-14T00:41:19;45.43;;;28.77;;
11121;SDS011;5615;49.304;10.576;2022-11-14T00:43:46;48.50;;;29.47;;
11121;SDS011;5615;49.304;10.576;2022-11-14T00:46:13;45.27;;;25.83;;
11121;SDS011;5615;49.304;10.576;2022-11-14T00:48:40;43.33;;;26.93;;
11121;SDS011;5615;49.304;10.576;2022-11-14T00:51:06;43.73;;;26.87;;
11121;SDS011;5615;49.304;10.576;2022-11-14T00:53:33;40.53;;;26.33;;
11121;SDS011;5615;49.304;10.576;2022-11-14T00:56:00;41.57;;;26.40;;
11121;SDS011;5615;49.304;10.576;2022-11-14T00:58:28;41.73;;;26.30;;
11121;SDS011;5615;49.304;10.576;2022-11-14T01:00:55;41.63;;;26.47;;
11121;SDS011;5615;49.304;10.576;2022-11-14T01:03:21;43.10;;;26.37;;
11121;SDS011;5615;49.304;10.576;2022-11-14T01:05:49;44.80;;;27.67;;
11121;SDS011;5615;49.304;10.576;2022-11-14T01:08:17;40.03;;;26.10;;
11121;SDS011;5615;49.304;10.576;2022-11-14T01:10:45;39.37;;;26.00;;
11121;SDS011;5615;49.304;10.576;2022-11-14T01:13:13;46.03;;;26.43;;
11121;SDS011;5615;49.304;10.576;2022-11-14T01:15:43;43.17;;;25.73;;
11121;SDS011;5615;49.304;10.576;2022-11-14T01:18:11;46.73;;;26.50;;
11121;SDS011;5615;49.304;10.576;2022-11-14T01:20:40;39.23;;;26.37;;
11121;SDS011;5615;49.304;10.576;2022-11-14T01:23:07;40.40;;;26.97;;
11121;SDS011;5615;49.304;10.576;2022-11-14T01:25:36;46.80;;;26.00;;
11121;SDS011;5615;49.304;10.576;2022-11-14T01:28:04;42.53;;;26.77;;
11121;SDS011;5615;49.304;10.576;2022-11-14T01:30:31;43.80;;;26.10;;
11121;SDS011;5615;49.304;10.576;2022-11-14T01:32:59;46.53;;;27.77;;
11121;SDS011;5615;49.304;10.576;2022-11-14T01:35:26;48.87;;;29.27;;
11121;SDS011;5615;49.304;10.576;2022-11-14T01:37:52;48.13;;;28.27;;
11121;SDS011;5615;49.304;10.576;2022-11-14T01:40:19;46.87;;;27.80;;
11121;SDS011;5615;49.304;10.576;2022-11-14T01:45:44;61.50;;;32.00;;
11121;SDS011;5615;49.304;10.576;2022-11-14T01:48:18;65.40;;;31.20;;
11121;SDS011;5615;49.304;10.576;2022-11-14T01:50:51;108.03;;;35.57;;
11121;SDS011;5615;49.304;10.576;2022-11-14T01:53:21;134.33;;;36.60;;
11121;SDS011;5615;49.304;10.576;2022-11-14T01:55:49;136.90;;;36.67;;
11121;SDS011;5615;49.304;10.576;2022-11-14T01:58:17;113.53;;;36.07;;
11121;SDS011;5615;49.304;10.576;2022-11-14T02:00:44;231.27;;;42.10;;
11121;SDS011;5615;49.304;10.576;2022-11-14T02:03:11;171.50;;;41.03;;
11121;SDS011;5615;49.304;10.576;2022-11-14T02:05:40;149.73;;;37.23;;
11121;SDS011;5615;49.304;10.576;2022-11-14T02:08:09;148.27;;;39.77;;
11121;SDS011;5615;49.304;10.576;2022-11-14T02:10:39;88.57;;;38.03;;
11121;SDS011;5615;49.304;10.576;2022-11-14T02:13:06;121.43;;;40.13;;
11121;SDS011;5615;49.304;10.576;2022-11-14T02:15:33;94.73;;;38.70;;
11121;SDS011;5615;49.304;10.576;2022-11-14T02:18:00;83.43;;;38.87;;
11121;SDS011;5615;49.304;10.576;2022-11-14T02:20:29;91.80;;;40.27;;
11121;SDS011;5615;49.304;10.576;2022-11-14T02:23:00;111.83;;;39.83;;
11121;SDS011;5615;49.304;10.576;2022-11-14T02:25:26;93.17;;;41.13;;
11121;SDS011;5615;49.304;10.576;2022-11-14T02:27:53;82.57;;;39.73;;
11121;SDS011;5615;49.304;10.576;2022-11-14T02:30:21;97.53;;;42.60;;
11121;SDS011;5615;49.304;10.576;2022-11-14T02:32:48;104.97;;;42.60;;
11121;SDS011;5615;49.304;10.576;2022-11-14T02:35:15;88.67;;;43.10;;
11121;SDS011;5615;49.304;10.576;2022-11-14T02:37:43;92.33;;;42.27;;
11121;SDS011;5615;49.304;10.576;2022-11-14T02:40:10;83.73;;;41.00;;
11121;SDS011;5615;49.304;10.576;2022-11-14T02:42:37;87.80;;;40.70;;
11121;SDS011;5615;49.304;10.576;2022-11-14T02:45:04;83.90;;;40.20;;
11121;SDS011;5615;49.304;10.576;2022-11-14T02:47:31;88.43;;;42.87;;
11121;SDS011;5615;49.304;10.576;2022-11-14T02:49:58;94.27;;;43.60;;
11121;SDS011;5615;49.304;10.576;2022-11-14T02:52:24;91.73;;;43.63;;
11121;SDS011;5615;49.304;10.576;2022-11-14T02:54:52;84.27;;;40.67;;
11121;SDS011;5615;49.304;10.576;2022-11-14T02:57:19;92.90;;;41.97;;
11121;SDS011;5615;49.304;10.576;2022-11-14T02:59:46;88.97;;;42.13;;
11121;SDS011;5615;49.304;10.576;2022-11-14T03:02:12;89.03;;;43.10;;
11121;SDS011;5615;49.304;10.576;2022-11-14T03:04:39;88.40;;;40.87;;
11121;SDS011;5615;49.304;10.576;2022-11-14T03:07:05;80.73;;;39.67;;
11121;SDS011;5615;49.304;10.576;2022-11-14T03:09:32;84.77;;;41.40;;
11121;SDS011;5615;49.304;10.576;2022-11-14T03:12:00;87.63;;;41.90;;
11121;SDS011;5615;49.304;10.576;2022-11-14T03:14:28;81.37;;;40.17;;
11121;SDS011;5615;49.304;10.576;2022-11-14T03:16:56;85.97;;;41.07;;
11121;SDS011;5615;49.304;10.576;2022-11-14T03:19:22;87.23;;;42.23;;
11121;SDS011;5615;49.304;10.576;2022-11-14T03:21:49;89.57;;;43.47;;
11121;SDS011;5615;49.304;10.576;2022-11-14T03:24:16;92.67;;;42.73;;
11121;SDS011;5615;49.304;10.576;2022-11-14T03:26:42;83.70;;;42.87;;
11121;SDS011;5615;49.304;10.576;2022-11-14T03:29:10;90.20;;;44.70;;
11121;SDS011;5615;49.304;10.576;2022-11-14T03:31:37;95.93;;;45.30;;
11121;SDS011;5615;49.304;10.576;2022-11-14T03:34:04;97.60;;;45.43;;
11121;SDS011;5615;49.304;10.576;2022-11-14T03:36:30;93.70;;;44.20;;
11121;SDS011;5615;49.304;10.576;2022-11-14T03:38:57;105.20;;;45.63;;
11121;SDS011;5615;49.304;10.576;2022-11-14T03:41:23;99.67;;;45.10;;
11121;SDS011;5615;49.304;10.576;2022-11-14T03:43:50;90.40;;;44.23;;
11121;SDS011;5615;49.304;10.576;2022-11-14T03:46:18;92.77;;;45.07;;
11121;SDS011;5615;49.304;10.576;2022-11-14T03:48:45;109.10;;;47.37;;
11121;SDS011;5615;49.304;10.576;2022-11-14T03:51:11;96.33;;;44.93;;
11121;SDS011;5615;49.304;10.576;2022-11-14T03:53:38;102.27;;;45.47;;
11121;SDS011;5615;49.304;10.576;2022-11-14T03:56:05;94.13;;;46.60;;
11121;SDS011;5615;49.304;10.576;2022-11-14T03:58:32;85.00;;;42.53;;
11121;SDS011;5615;49.304;10.576;2022-11-14T04:00:58;94.63;;;44.80;;
11121;SDS011;5615;49.304;10.576;2022-11-14T04:03:26;91.70;;;43.77;;
11121;SDS011;5615;49.304;10.576;2022-11-14T04:05:53;89.93;;;42.73;;
11121;SDS011;5615;49.304;10.576;2022-11-14T04:08:20;97.67;;;45.83;;
11121;SDS011;5615;49.304;10.576;2022-11-14T04:10:46;93.17;;;44.10;;
11121;SDS011;5615;49.304;10.576;2022-11-14T04:13:13;94.57;;;44.00;;
11121;SDS011;5615;49.304;10.576;2022-11-14T04:15:40;96.53;;;44.10;;
11121;SDS011;5615;49.304;10.576;2022-11-14T04:18:07;81.07;;;40.83;;
11121;SDS011;5615;49.304;10.576;2022-11-14T04:20:35;85.20;;;40.00;;
11121;SDS011;5615;49.304;10.576;2022-11-14T04:23:01;90.97;;;42.13;;
11121;SDS011;5615;49.304;10.576;2022-11-14T04:25:28;83.60;;;39.70;;
11121;SDS011;5615;49.304;10.576;2022-11-14T04:27:55;80.53;;;39.70;;
11121;SDS011;5615;49.304;10.576;2022-11-14T04:30:21;74.90;;;39.50;;
11121;SDS011;5615;49.304;10.576;2022-11-14T04:32:48;76.57;;;39.13;;
11121;SDS011;5615;49.304;10.576;2022-11-14T04:35:14;67.77;;;34.27;;
11121;SDS011;5615;49.304;10.576;2022-11-14T04:37:42;69.43;;;35.60;;
11121;SDS011;5615;49.304;10.576;2022-11-14T04:40:09;68.33;;;36.33;;
11121;SDS011;5615;49.304;10.576;2022-11-14T04:42:36;67.53;;;35.47;;
11121;SDS011;5615;49.304;10.576;2022-11-14T04:45:03;65.83;;;34.63;;
11121;SDS011;5615;49.304;10.576;2022-11-14T04:47:31;62.20;;;32.17;;
11121;SDS011;5615;49.304;10.576;2022-11-14T04:49:58;62.37;;;33.07;;
11121;SDS011;5615;49.304;10.576;2022-11-14T04:52:24;65.47;;;34.40;;
11121;SDS011;5615;49.304;10.576;2022-11-14T04:54:52;61.10;;;32.70;;
11121;SDS011;5615;49.304;10.576;2022-11-14T04:57:19;61.30;;;34.00;;
11121;SDS011;5615;49.304;10.576;2022-11-14T04:59:45;64.00;;;32.97;;
11121;SDS011;5615;49.304;10.576;2022-11-14T05:02:12;64.27;;;33.00;;
11121;SDS011;5615;49.304;10.576;2022-11-14T05:04:39;71.07;;;32.97;;
11121;SDS011;5615;49.304;10.576;2022-11-14T05:07:06;97.83;;;34.17;;
11121;SDS011;5615;49.304;10.576;2022-11-14T05:09:32;71.87;;;32.80;;
11121;SDS011;5615;49.304;10.576;2022-11-14T05:12:02;64.00;;;32.17;;
11121;SDS011;5615;49.304;10.576;2022-11-14T05:14:28;85.07;;;33.77;;
11121;SDS011;5615;49.304;10.576;2022-11-14T05:16:56;65.27;;;31.63;;
11121;SDS011;5615;49.304;10.576;2022-11-14T05:19:23;58.33;;;32.10;;
11121;SDS011;5615;49.304;10.576;2022-11-14T05:21:50;58.00;;;31.90;;
11121;SDS011;5615;49.304;10.576;2022-11-14T05:24:16;69.60;;;33.00;;
11121;SDS011;5615;49.304;10.576;2022-11-14T05:26:43;207.67;;;43.43;;
11121;SDS011;5615;49.304;10.576;2022-11-14T05:29:11;59.13;;;31.90;;
11121;SDS011;5615;49.304;10.576;2022-11-14T05:31:38;57.17;;;31.57;;
11121;SDS011;5615;49.304;10.576;2022-11-14T05:34:05;93.30;;;32.03;;
11121;SDS011;5615;49.304;10.576;2022-11-14T05:36:31;55.27;;;30.67;;
11121;SDS011;5615;49.304;10.576;2022-11-14T05:38:58;63.40;;;31.97;;
11121;SDS011;5615;49.304;10.576;2022-11-14T05:41:25;66.27;;;32.90;;
11121;SDS011;5615;49.304;10.576;2022-11-14T05:43:51;65.53;;;32.30;;
11121;SDS011;5615;49.304;10.576;2022-11-14T05:46:19;74.80;;;34.63;;
11121;SDS011;5615;49.304;10.576;2022-11-14T05:48:46;57.93;;;30.77;;
11121;SDS011;5615;49.304;10.576;2022-11-14T05:51:13;65.33;;;32.67;;
11121;SDS011;5615;49.304;10.576;2022-11-14T05:53:39;65.23;;;33.33;;
11121;SDS011;5615;49.304;10.576;2022-11-14T05:56:08;70.53;;;32.77;;
11121;SDS011;5615;49.304;10.576;2022-11-14T05:58:36;71.60;;;35.10;;
11121;SDS011;5615;49.304;10.576;2022-11-14T06:01:05;73.77;;;34.90;;
11121;SDS011;5615;49.304;10.576;2022-11-14T06:03:35;78.33;;;35.00;;
11121;SDS011;5615;49.304;10.576;2022-11-14T06:06:04;72.47;;;34.50;;
11121;SDS011;5615;49.304;10.576;2022-11-14T06:08:32;67.87;;;34.33;;
11121;SDS011;5615;49.304;10.576;2022-11-14T06:11:03;62.70;;;32.90;;
11121;SDS011;5615;49.304;10.576;2022-11-14T06:13:30;71.53;;;36.77;;
11121;SDS011;5615;49.304;10.576;2022-11-14T06:15:58;62.27;;;32.00;;
11121;SDS011;5615;49.304;10.576;2022-11-14T06:18:25;67.93;;;32.87;;
11121;SDS011;5615;49.304;10.576;2022-11-14T06:20:53;60.27;;;31.30;;
11121;SDS011;5615;49.304;10.576;2022-11-14T06:23:24;56.17;;;30.83;;
11121;SDS011;5615;49.304;10.576;2022-11-14T06:25:50;63.00;;;33.77;;
11121;SDS011;5615;49.304;10.576;2022-11-14T06:28:17;60.13;;;32.03;;
11121;SDS011;5615;49.304;10.576;2022-11-14T06:30:44;61.13;;;32.33;;
11121;SDS011;5615;49.304;10.576;2022-11-14T06:33:10;62.33;;;30.90;;
11121;SDS011;5615;49.304;10.576;2022-11-14T06:35:37;57.80;;;32.67;;
11121;SDS011;5615;49.304;10.576;2022-11-14T06:38:05;53.63;;;29.40;;
11121;SDS011;5615;49.304;10.576;2022-11-14T06:40:32;48.50;;;27.67;;
11121;SDS011;5615;49.304;10.576;2022-11-14T06:42:58;48.33;;;27.30;;
11121;SDS011;5615;49.304;10.576;2022-11-14T06:45:25;51.03;;;28.03;;
11121;SDS011;5615;49.304;10.576;2022-11-14T06:47:51;48.13;;;27.60;;
11121;SDS011;5615;49.304;10.576;2022-11-14T06:50:18;44.67;;;26.27;;
11121;SDS011;5615;49.304;10.576;2022-11-14T06:52:45;49.10;;;27.83;;
11121;SDS011;5615;49.304;10.576;2022-11-14T06:55:13;47.40;;;27.33;;
11121;SDS011;5615;49.304;10.576;2022-11-14T06:57:39;51.27;;;27.67;;
11121;SDS011;5615;49.304;10.576;2022-11-14T07:00:08;42.37;;;26.17;;
11121;SDS011;5615;49.304;10.576;2022-11-14T07:02:35;47.77;;;27.77;;
11121;SDS011;5615;49.304;10.576;2022-11-14T07:05:01;49.90;;;28.57;;
11121;SDS011;5615;49.304;10.576;2022-11-14T07:07:28;49.57;;;28.17;;
11121;SDS011;5615;49.304;10.576;2022-11-14T07:09:56;44.20;;;27.10;;
11121;SDS011;5615;49.304;10.576;2022-11-14T07:12:24;42.83;;;26.87;;
11121;SDS011;5615;49.304;10.576;2022-11-14T07:14:50;46.07;;;27.00;;
11121;SDS011;5615;49.304;10.576;2022-11-14T07:17:17;53.80;;;28.07;;
11121;SDS011;5615;49.304;10.576;2022-11-14T07:19:44;42.10;;;26.60;;
11121;SDS011;5615;49.304;10.576;2022-11-14T07:22:10;40.67;;;25.17;;
11121;SDS011;5615;49.304;10.576;2022-11-14T07:24:37;37.10;;;24.07;;
11121;SDS011;5615;49.304;10.576;2022-11-14T07:27:03;40.73;;;24.50;;
11121;SDS011;5615;49.304;10.576;2022-11-14T07:29:34;41.87;;;25.10;;
11121;SDS011;5615;49.304;10.576;2022-11-14T07:32:00;36.47;;;22.67;;
11121;SDS011;5615;49.304;10.576;2022-11-14T07:34:27;37.07;;;25.23;;
11121;SDS011;5615;49.304;10.576;2022-11-14T07:36:54;31.63;;;21.90;;
11121;SDS011;5615;49.304;10.576;2022-11-14T07:39:20;33.97;;;22.30;;
11121;SDS011;5615;49.304;10.576;2022-11-14T07:41:47;34.73;;;23.27;;
11121;SDS011;5615;49.304;10.576;2022-11-14T07:44:13;32.87;;;22.73;;
11121;SDS011;5615;49.304;10.576;2022-11-14T07:46:41;30.17;;;20.93;;
11121;SDS011;5615;49.304;10.576;2022-11-14T07:49:08;31.33;;;22.13;;
11121;SDS011;5615;49.304;10.576;2022-11-14T07:51:35;28.37;;;19.97;;
11121;SDS011;5615;49.304;10.576;2022-11-14T07:54:02;31.83;;;20.73;;
11121;SDS011;5615;49.304;10.576;2022-11-14T07:56:29;29.07;;;19.90;;
11121;SDS011;5615;49.304;10.576;2022-11-14T07:58:55;28.03;;;20.87;;
11121;SDS011;5615;49.304;10.576;2022-11-14T08:01:23;27.83;;;19.67;;
11121;SDS011;5615;49.304;10.576;2022-11-14T08:03:51;28.20;;;19.93;;
11121;SDS011;5615;49.304;10.576;2022-11-14T08:06:17;27.00;;;18.63;;
11121;SDS011;5615;49.304;10.576;2022-11-14T08:08:44;24.13;;;18.17;;
11121;SDS011;5615;49.304;10.576;2022-11-14T08:11:10;23.13;;;17.43;;
11121;SDS011;5615;49.304;10.576;2022-11-14T08:13:37;22.57;;;16.60;;
11121;SDS011;5615;49.304;10.576;2022-11-14T08:16:04;23.43;;;16.93;;
11121;SDS011;5615;49.304;10.576;2022-11-14T08:18:31;20.10;;;15.47;;
11121;SDS011;5615;49.304;10.576;2022-11-14T08:20:59;22.00;;;16.60;;
11121;SDS011;5615;49.304;10.576;2022-11-14T08:23:29;19.87;;;16.07;;
11121;SDS011;5615;49.304;10.576;2022-11-14T08:25:56;18.93;;;14.93;;
11121;SDS011;5615;49.304;10.576;2022-11-14T08:28:23;22.00;;;16.13;;
11121;SDS011;5615;49.304;10.576;2022-11-14T08:30:50;18.50;;;15.00;;
11121;SDS011;5615;49.304;10.576;2022-11-14T08:33:16;20.97;;;16.00;;
11121;SDS011;5615;49.304;10.576;2022-11-14T08:35:43;20.47;;;15.67;;
11121;SDS011;5615;49.304;10.576;2022-11-14T08:38:11;16.70;;;13.70;;
11121;SDS011;5615;49.304;10.576;2022-11-14T08:40:38;17.27;;;13.60;;
11121;SDS011;5615;49.304;10.576;2022-11-14T08:43:04;15.87;;;13.03;;
11121;SDS011;5615;49.304;10.576;2022-11-14T08:45:32;16.10;;;13.63;;
11121;SDS011;5615;49.304;10.576;2022-11-14T08:47:58;16.33;;;12.23;;
11121;SDS011;5615;49.304;10.576;2022-11-14T08:50:25;16.70;;;13.50;;
11121;SDS011;5615;49.304;10.576;2022-11-14T08:52:51;14.67;;;12.33;;
11121;SDS011;5615;49.304;10.576;2022-11-14T08:55:19;15.13;;;12.27;;
11121;SDS011;5615;49.304;10.576;2022-11-14T08:57:46;15.10;;;12.80;;
11121;SDS011;5615;49.304;10.576;2022-11-14T09:00:13;19.90;;;12.83;;
11121;SDS011;5615;49.304;10.576;2022-11-14T09:02:41;18.37;;;11.77;;
11121;SDS011;5615;49.304;10.576;2022-11-14T09:05:07;13.03;;;11.33;;
11121;SDS011;5615;49.304;10.576;2022-11-14T09:07:35;16.13;;;11.77;;
11121;SDS011;5615;49.304;10.576;2022-11-14T09:10:02;12.60;;;10.83;;
11121;SDS011;5615;49.304;10.576;2022-11-14T09:12:31;21.10;;;12.23;;
11121;SDS011;5615;49.304;10.576;2022-11-14T09:14:58;21.63;;;11.67;;
11121;SDS011;5615;49.304;10.576;2022-11-14T09:17:24;13.53;;;11.07;;
11121;SDS011;5615;49.304;10.576;2022-11-14T09:19:51;12.07;;;10.77;;
11121;SDS011;5615;49.304;10.576;2022-11-14T09:22:18;13.47;;;10.57;;
11121;SDS011;5615;49.304;10.576;2022-11-14T09:24:44;11.90;;;10.63;;
11121;SDS011;5615;49.304;10.576;2022-11-14T09:27:13;10.83;;;9.73;;
11121;SDS011;5615;49.304;10.576;2022-11-14T09:29:42;12.90;;;10.60;;
11121;SDS011;5615;49.304;10.576;2022-11-14T09:32:09;13.20;;;11.03;;
11121;SDS011;5615;49.304;10.576;2022-11-14T09:34:36;12.00;;;10.40;;
11121;SDS011;5615;49.304;10.576;2022-11-14T09:37:06;13.07;;;11.23;;
11121;SDS011;5615;49.304;10.576;2022-11-14T09:39:33;12.27;;;10.97;;
11121;SDS011;5615;49.304;10.576;2022-11-14T09:42:07;12.33;;;11.03;;
11121;SDS011;5615;49.304;10.576;2022-11-14T09:44:54;12.90;;;10.60;;
11121;SDS011;5615;49.304;10.576;2022-11-14T09:47:23;12.67;;;10.30;;
11121;SDS011;5615;49.304;10.576;2022-11-14T09:49:54;15.43;;;10.77;;
11121;SDS011;5615;49.304;10.576;2022-11-14T09:52:29;15.77;;;10.53;;
11121;SDS011;5615;49.304;10.576;2022-11-14T09:55:00;14.27;;;10.97;;
11121;SDS011;5615;49.304;10.576;2022-11-14T09:57:29;10.50;;;9.40;;
11121;SDS011;5615;49.304;10.576;2022-11-14T09:59:57;12.53;;;10.57;;
11121;SDS011;5615;49.304;10.576;2022-11-14T10:02:29;16.23;;;10.53;;
11121;SDS011;5615;49.304;10.576;2022-11-14T10:05:04;11.55;;;9.57;;
11121;SDS011;5615;49.304;10.576;2022-11-14T10:07:44;11.07;;;9.98;;
11121;SDS011;5615;49.304;10.576;2022-11-14T10:10:27;18.23;;;10.45;;
11121;SDS011;5615;49.304;10.576;2022-11-14T10:13:05;16.13;;;9.18;;
11121;SDS011;5615;49.304;10.576;2022-11-14T10:15:41;20.77;;;11.07;;
11121;SDS011;5615;49.304;10.576;2022-11-14T10:18:16;11.18;;;8.68;;
11121;SDS011;5615;49.304;10.576;2022-11-14T10:20:53;9.80;;;8.80;;
11121;SDS011;5615;49.304;10.576;2022-11-14T10:23:26;10.27;;;9.38;;
11121;SDS011;5615;49.304;10.576;2022-11-14T10:26:02;10.05;;;9.15;;
11121;SDS011;5615;49.304;10.576;2022-11-14T10:28:47;10.48;;;9.45;;
11121;SDS011;5615;49.304;10.576;2022-11-14T10:31:29;10.07;;;9.18;;
11121;SDS011;5615;49.304;10.576;2022-11-14T10:34:05;10.88;;;9.77;;
11121;SDS011;5615;49.304;10.576;2022-11-14T10:39:23;13.90;;;10.17;;
11121;SDS011;5615;49.304;10.576;2022-11-14T10:41:58;11.97;;;10.30;;
11121;SDS011;5615;49.304;10.576;2022-11-14T10:44:29;11.37;;;10.17;;
11121;SDS011;5615;49.304;10.576;2022-11-14T10:47:03;20.23;;;10.80;;
11121;SDS011;5615;49.304;10.576;2022-11-14T10:49:33;12.18;;;9.90;;
11121;SDS011;5615;49.304;10.576;2022-11-14T10:52:03;10.70;;;9.38;;
11121;SDS011;5615;49.304;10.576;2022-11-14T10:54:36;15.05;;;10.15;;
11121;SDS011;5615;49.304;10.576;2022-11-14T10:57:12;14.02;;;9.75;;
11121;SDS011;5615;49.304;10.576;2022-11-14T10:59:41;20.52;;;9.73;;
11121;SDS011;5615;49.304;10.576;2022-11-14T11:02:10;10.30;;;9.20;;
11121;SDS011;5615;49.304;10.576;2022-11-14T11:04:37;10.60;;;9.50;;
11121;SDS011;5615;49.304;10.576;2022-11-14T11:07:17;10.27;;;9.38;;
11121;SDS011;5615;49.304;10.576;2022-11-14T11:10:03;11.25;;;9.75;;
11121;SDS011;5615;49.304;10.576;2022-11-14T11:12:49;9.45;;;8.55;;
11121;SDS011;5615;49.304;10.576;2022-11-14T11:15:17;9.88;;;8.98;;
11121;SDS011;5615;49.304;10.576;2022-11-14T11:17:53;9.98;;;8.80;;
11121;SDS011;5615;49.304;10.576;2022-11-14T11:20:26;10.73;;;9.73;;
11121;SDS011;5615;49.304;10.576;2022-11-14T11:23:00;10.27;;;9.15;;
11121;SDS011;5615;49.304;10.576;2022-11-14T11:25:29;9.63;;;8.80;;
11121;SDS011;5615;49.304;10.576;2022-11-14T11:28:03;9.93;;;9.02;;
11121;SDS011;5615;49.304;10.576;2022-11-14T11:30:32;9.65;;;8.65;;
11121;SDS011;5615;49.304;10.576;2022-11-14T11:35:48;9.68;;;8.75;;
11121;SDS011;5615;49.304;10.576;2022-11-14T11:38:17;9.85;;;8.77;;
11121;SDS011;5615;49.304;10.576;2022-11-14T11:40:45;10.05;;;9.10;;
11121;SDS011;5615;49.304;10.576;2022-11-14T11:43:16;9.13;;;8.32;;
11121;SDS011;5615;49.304;10.576;2022-11-14T11:45:51;9.85;;;9.05;;
11121;SDS011;5615;49.304;10.576;2022-11-14T11:48:21;9.93;;;9.02;;
11121;SDS011;5615;49.304;10.576;2022-11-14T11:50:51;9.55;;;8.75;;
11121;SDS011;5615;49.304;10.576;2022-11-14T11:53:19;10.50;;;8.90;;
11121;SDS011;5615;49.304;10.576;2022-11-14T11:55:50;9.55;;;8.65;;
11121;SDS011;5615;49.304;10.576;2022-11-14T11:58:22;9.90;;;9.00;;
11121;SDS011;5615;49.304;10.576;2022-11-14T12:00:51;9.57;;;8.75;;
11121;SDS011;5615;49.304;10.576;2022-11-14T12:03:21;9.50;;;8.70;;
11121;SDS011;5615;49.304;10.576;2022-11-14T12:05:52;8.95;;;8.15;;
11121;SDS011;5615;49.304;10.576;2022-11-14T12:08:29;9.13;;;8.20;;
11121;SDS011;5615;49.304;10.576;2022-11-14T12:11:03;9.13;;;8.32;;
11121;SDS011;5615;49.304;10.576;2022-11-14T12:13:42;9.00;;;8.18;;
11121;SDS011;5615;49.304;10.576;2022-11-14T12:16:30;9.68;;;8.80;;
11121;SDS011;5615;49.304;10.576;2022-11-14T12:22:06;10.75;;;9.25;;
11121;SDS011;5615;49.304;10.576;2022-11-14T12:25:00;10.52;;;9.52;;
11121;SDS011;5615;49.304;10.576;2022-11-14T12:27:58;10.23;;;9.23;;
11121;SDS011;5615;49.304;10.576;2022-11-14T12:30:48;10.30;;;9.30;;
11121;SDS011;5615;49.304;10.576;2022-11-14T12:33:18;11.47;;;9.83;;
11121;SDS011;5615;49.304;10.576;2022-11-14T12:35:51;11.87;;;10.23;;
11121;SDS011;5615;49.304;10.576;2022-11-14T12:38:20;11.97;;;10.47;;
11121;SDS011;5615;49.304;10.576;2022-11-14T12:40:48;11.87;;;9.70;;
11121;SDS011;5615;49.304;10.576;2022-11-14T12:43:25;10.33;;;9.27;;
11121;SDS011;5615;49.304;10.576;2022-11-14T12:45:56;10.23;;;9.23;;
11121;SDS011;5615;49.304;10.576;2022-11-14T12:48:31;11.23;;;8.53;;
11121;SDS011;5615;49.304;10.576;2022-11-14T12:51:01;10.27;;;8.87;;
11121;SDS011;5615;49.304;10.576;2022-11-14T12:53:38;10.37;;;9.37;;
11121;SDS011;5615;49.304;10.576;2022-11-14T12:56:17;10.10;;;9.00;;
11121;SDS011;5615;49.304;10.576;2022-11-14T12:59:12;9.83;;;8.83;;
11121;SDS011;5615;49.304;10.576;2022-11-14T13:01:49;9.87;;;8.87;;
11121;SDS011;5615;49.304;10.576;2022-11-14T13:04:31;9.53;;;8.53;;
11121;SDS011;5615;49.304;10.576;2022-11-14T13:07:16;10.27;;;8.77;;
11121;SDS011;5615;49.304;10.576;2022-11-14T13:10:02;10.33;;;9.23;;
11121;SDS011;5615;49.304;10.576;2022-11-14T13:12:38;11.33;;;9.87;;
11121;SDS011;5615;49.304;10.576;2022-11-14T13:15:24;11.07;;;9.20;;
11121;SDS011;5615;49.304;10.576;2022-11-14T13:18:16;9.90;;;8.90;;
11121;SDS011;5615;49.304;10.576;2022-11-14T13:21:03;10.13;;;9.13;;
11121;SDS011;5615;49.304;10.576;2022-11-14T13:23:53;11.07;;;9.20;;
11121;SDS011;5615;49.304;10.576;2022-11-14T13:26:37;11.60;;;9.90;;
11121;SDS011;5615;49.304;10.576;2022-11-14T13:35:10;11.47;;;10.00;;
11121;SDS011;5615;49.304;10.576;2022-11-14T13:37:45;12.00;;;9.90;;
11121;SDS011;5615;49.304;10.576;2022-11-14T13:40:24;9.80;;;8.80;;
11121;SDS011;5615;49.304;10.576;2022-11-14T13:42:57;10.33;;;8.47;;
11121;SDS011;5615;49.304;10.576;2022-11-14T13:45:39;9.95;;;8.93;;
11121;SDS011;5615;49.304;10.576;2022-11-14T13:48:17;9.25;;;8.32;;
11121;SDS011;5615;49.304;10.576;2022-11-14T13:50:58;10.03;;;8.67;;
11121;SDS011;5615;49.304;10.576;2022-11-14T13:53:28;9.60;;;8.60;;
11121;SDS011;5615;49.304;10.576;2022-11-14T13:56:00;9.77;;;8.70;;
11121;SDS011;5615;49.304;10.576;2022-11-14T13:58:48;10.53;;;8.33;;
11121;SDS011;5615;49.304;10.576;2022-11-14T14:01:43;8.30;;;7.40;;
11121;SDS011;5615;49.304;10.576;2022-11-14T14:04:21;8.80;;;7.67;;
11121;SDS011;5615;49.304;10.576;2022-11-14T14:07:01;7.35;;;6.47;;
11121;SDS011;5615;49.304;10.576;2022-11-14T14:09:36;7.18;;;6.47;;
11121;SDS011;5615;49.304;10.576;2022-11-14T14:12:16;8.20;;;6.60;;
11121;SDS011;5615;49.304;10.576;2022-11-14T14:14:56;8.05;;;6.72;;
11121;SDS011;5615;49.304;10.576;2022-11-14T14:17:31;6.35;;;5.75;;
11121;SDS011;5615;49.304;10.576;2022-11-14T14:20:12;7.20;;;6.50;;
11121;SDS011;5615;49.304;10.576;2022-11-14T14:22:46;7.45;;;6.18;;
11121;SDS011;5615;49.304;10.576;2022-11-14T14:25:22;6.70;;;6.10;;
11121;SDS011;5615;49.304;10.576;2022-11-14T14:28:02;7.75;;;7.05;;
11121;SDS011;5615;49.304;10.576;2022-11-14T14:30:35;9.27;;;7.03;;
11121;SDS011;5615;49.304;10.576;2022-11-14T14:33:03;7.82;;;7.03;;
11121;SDS011;5615;49.304;10.576;2022-11-14T14:35:36;12.20;;;7.32;;
11121;SDS011;5615;49.304;10.576;2022-11-14T14:38:08;11.25;;;6.47;;
11121;SDS011;5615;49.304;10.576;2022-11-14T14:40:37;8.75;;;6.75;;
11121;SDS011;5615;49.304;10.576;2022-11-14T14:43:11;10.15;;;7.22;;
11121;SDS011;5615;49.304;10.576;2022-11-14T14:45:50;9.47;;;7.40;;
11121;SDS011;5615;49.304;10.576;2022-11-14T14:48:20;7.73;;;6.93;;
11121;SDS011;5615;49.304;10.576;2022-11-14T14:50:49;10.07;;;6.73;;
11121;SDS011;5615;49.304;10.576;2022-11-14T14:53:18;8.70;;;6.30;;
11121;SDS011;5615;49.304;10.576;2022-11-14T14:55:50;7.20;;;6.50;;
11121;SDS011;5615;49.304;10.576;2022-11-14T14:58:26;7.27;;;6.40;;
11121;SDS011;5615;49.304;10.576;2022-11-14T15:00:55;7.60;;;6.70;;